sensor_id;sensor_type;location;lat;lon;timestamp;P1;durP1;ratioP1;P2;durP2;ratioP2
34926;SDS011;21132;48.308;14.274;2023-03-23T00:00:53;11.52;;;6.90;;
34926;SDS011;21132;48.308;14.274;2023-03-23T00:03:21;10.38;;;6.60;;
34926;SDS011;21132;48.308;14.274;2023-03-23T00:05:50;10.80;;;7.00;;
34926;SDS011;21132;48.308;14.274;2023-03-23T00:08:18;11.15;;;7.10;;
34926;SDS011;21132;48.308;14.274;2023-03-23T00:10:50;13.40;;;8.18;;
34926;SDS011;21132;48.308;14.274;2023-03-23T00:13:18;12.25;;;8.23;;
34926;SDS011;21132;48.308;14.274;2023-03-23T00:15:45;10.45;;;6.95;;
34926;SDS011;21132;48.308;14.274;2023-03-23T00:18:14;10.65;;;6.47;;
34926;SDS011;21132;48.308;14.274;2023-03-23T00:20:46;12.18;;;6.32;;
34926;SDS011;21132;48.308;14.274;2023-03-23T00:23:20;11.15;;;7.18;;
34926;SDS011;21132;48.308;14.274;2023-03-23T00:25:49;11.82;;;6.53;;
34926;SDS011;21132;48.308;14.274;2023-03-23T00:28:18;13.75;;;7.22;;
34926;SDS011;21132;48.308;14.274;2023-03-23T00:30:56;9.43;;;6.68;;
34926;SDS011;21132;48.308;14.274;2023-03-23T00:33:24;10.27;;;6.40;;
34926;SDS011;21132;48.308;14.274;2023-03-23T00:35:52;10.55;;;6.95;;
34926;SDS011;21132;48.308;14.274;2023-03-23T00:38:19;10.40;;;6.93;;
34926;SDS011;21132;48.308;14.274;2023-03-23T00:40:49;11.95;;;7.10;;
34926;SDS011;21132;48.308;14.274;2023-03-23T00:43:16;10.00;;;6.88;;
34926;SDS011;21132;48.308;14.274;2023-03-23T00:45:43;12.18;;;6.82;;
34926;SDS011;21132;48.308;14.274;2023-03-23T00:48:10;13.35;;;7.22;;
34926;SDS011;21132;48.308;14.274;2023-03-23T00:50:38;16.08;;;7.15;;
34926;SDS011;21132;48.308;14.274;2023-03-23T00:53:04;12.50;;;7.85;;
34926;SDS011;21132;48.308;14.274;2023-03-23T00:55:30;10.25;;;6.78;;
34926;SDS011;21132;48.308;14.274;2023-03-23T00:57:56;11.18;;;6.30;;
34926;SDS011;21132;48.308;14.274;2023-03-23T01:00:22;10.60;;;6.28;;
34926;SDS011;21132;48.308;14.274;2023-03-23T01:02:48;14.20;;;8.38;;
34926;SDS011;21132;48.308;14.274;2023-03-23T01:05:16;11.32;;;7.53;;
34926;SDS011;21132;48.308;14.274;2023-03-23T01:07:43;12.15;;;7.43;;
34926;SDS011;21132;48.308;14.274;2023-03-23T01:10:09;9.98;;;6.85;;
34926;SDS011;21132;48.308;14.274;2023-03-23T01:12:46;9.98;;;6.78;;
34926;SDS011;21132;48.308;14.274;2023-03-23T01:15:13;11.82;;;7.18;;
34926;SDS011;21132;48.308;14.274;2023-03-23T01:17:41;11.48;;;7.30;;
34926;SDS011;21132;48.308;14.274;2023-03-23T01:20:08;10.18;;;6.47;;
34926;SDS011;21132;48.308;14.274;2023-03-23T03:25:40;13.88;;;6.85;;
34926;SDS011;21132;48.308;14.274;2023-03-23T03:38:19;12.25;;;6.68;;
34926;SDS011;21132;48.308;14.274;2023-03-23T03:57:31;10.63;;;6.18;;
34926;SDS011;21132;48.308;14.274;2023-03-23T04:00:49;9.87;;;5.80;;
34926;SDS011;21132;48.308;14.274;2023-03-23T04:16:53;10.02;;;6.47;;
34926;SDS011;21132;48.308;14.274;2023-03-23T04:19:23;9.70;;;5.88;;
34926;SDS011;21132;48.308;14.274;2023-03-23T04:21:49;17.88;;;8.02;;
34926;SDS011;21132;48.308;14.274;2023-03-23T04:24:16;13.13;;;8.50;;
34926;SDS011;21132;48.308;14.274;2023-03-23T04:26:49;9.95;;;6.90;;
34926;SDS011;21132;48.308;14.274;2023-03-23T04:29:19;12.80;;;7.43;;
34926;SDS011;21132;48.308;14.274;2023-03-23T04:31:45;12.27;;;6.88;;
34926;SDS011;21132;48.308;14.274;2023-03-23T04:34:11;11.25;;;6.30;;
34926;SDS011;21132;48.308;14.274;2023-03-23T04:36:40;12.00;;;7.00;;
34926;SDS011;21132;48.308;14.274;2023-03-23T04:39:09;9.63;;;6.63;;
34926;SDS011;21132;48.308;14.274;2023-03-23T04:41:41;12.13;;;7.57;;
34926;SDS011;21132;48.308;14.274;2023-03-23T04:44:14;14.82;;;7.45;;
34926;SDS011;21132;48.308;14.274;2023-03-23T04:46:46;14.80;;;6.90;;
34926;SDS011;21132;48.308;14.274;2023-03-23T04:49:15;12.35;;;7.05;;
34926;SDS011;21132;48.308;14.274;2023-03-23T04:51:46;12.93;;;7.05;;
34926;SDS011;21132;48.308;14.274;2023-03-23T04:54:13;9.98;;;6.47;;
34926;SDS011;21132;48.308;14.274;2023-03-23T04:56:39;12.95;;;7.13;;
34926;SDS011;21132;48.308;14.274;2023-03-23T04:59:10;12.07;;;6.60;;
34926;SDS011;21132;48.308;14.274;2023-03-23T05:01:38;14.82;;;7.13;;
34926;SDS011;21132;48.308;14.274;2023-03-23T05:04:07;9.27;;;6.00;;
34926;SDS011;21132;48.308;14.274;2023-03-23T05:06:33;14.70;;;5.80;;
34926;SDS011;21132;48.308;14.274;2023-03-23T05:08:59;15.70;;;6.85;;
34926;SDS011;21132;48.308;14.274;2023-03-23T05:11:25;11.07;;;6.18;;
34926;SDS011;21132;48.308;14.274;2023-03-23T05:13:51;23.15;;;7.30;;
34926;SDS011;21132;48.308;14.274;2023-03-23T05:16:17;10.43;;;6.50;;
34926;SDS011;21132;48.308;14.274;2023-03-23T05:18:43;10.85;;;6.50;;
34926;SDS011;21132;48.308;14.274;2023-03-23T05:21:11;12.50;;;6.57;;
34926;SDS011;21132;48.308;14.274;2023-03-23T05:23:37;11.95;;;6.30;;
34926;SDS011;21132;48.308;14.274;2023-03-23T05:26:03;12.57;;;6.75;;
34926;SDS011;21132;48.308;14.274;2023-03-23T05:28:29;15.00;;;7.75;;
34926;SDS011;21132;48.308;14.274;2023-03-23T05:30:55;11.32;;;7.22;;
34926;SDS011;21132;48.308;14.274;2023-03-23T05:33:22;15.65;;;7.45;;
34926;SDS011;21132;48.308;14.274;2023-03-23T05:35:48;13.63;;;7.53;;
34926;SDS011;21132;48.308;14.274;2023-03-23T05:38:14;10.63;;;6.50;;
34926;SDS011;21132;48.308;14.274;2023-03-23T05:40:41;9.52;;;6.97;;
34926;SDS011;21132;48.308;14.274;2023-03-23T05:43:08;11.98;;;6.43;;
34926;SDS011;21132;48.308;14.274;2023-03-23T05:45:34;15.20;;;6.22;;
34926;SDS011;21132;48.308;14.274;2023-03-23T05:48:00;10.05;;;6.25;;
34926;SDS011;21132;48.308;14.274;2023-03-23T05:50:26;13.98;;;7.47;;
34926;SDS011;21132;48.308;14.274;2023-03-23T05:52:54;12.82;;;6.68;;
34926;SDS011;21132;48.308;14.274;2023-03-23T05:55:20;11.32;;;6.93;;
34926;SDS011;21132;48.308;14.274;2023-03-23T05:57:46;15.82;;;6.65;;
34926;SDS011;21132;48.308;14.274;2023-03-23T06:00:14;9.32;;;6.35;;
34926;SDS011;21132;48.308;14.274;2023-03-23T06:02:44;9.02;;;5.57;;
34926;SDS011;21132;48.308;14.274;2023-03-23T06:05:11;9.80;;;5.60;;
34926;SDS011;21132;48.308;14.274;2023-03-23T06:07:37;9.80;;;6.03;;
34926;SDS011;21132;48.308;14.274;2023-03-23T06:10:04;8.82;;;5.93;;
34926;SDS011;21132;48.308;14.274;2023-03-23T06:12:31;11.88;;;5.57;;
34926;SDS011;21132;48.308;14.274;2023-03-23T06:14:57;9.27;;;5.80;;
34926;SDS011;21132;48.308;14.274;2023-03-23T06:17:24;12.00;;;6.55;;
34926;SDS011;21132;48.308;14.274;2023-03-23T06:19:50;11.00;;;6.10;;
34926;SDS011;21132;48.308;14.274;2023-03-23T06:22:16;11.85;;;6.00;;
34926;SDS011;21132;48.308;14.274;2023-03-23T06:24:43;9.63;;;6.70;;
34926;SDS011;21132;48.308;14.274;2023-03-23T06:27:21;10.68;;;7.05;;
34926;SDS011;21132;48.308;14.274;2023-03-23T06:29:49;9.20;;;5.50;;
34926;SDS011;21132;48.308;14.274;2023-03-23T06:32:17;8.00;;;6.10;;
34926;SDS011;21132;48.308;14.274;2023-03-23T06:34:44;10.80;;;5.63;;
34926;SDS011;21132;48.308;14.274;2023-03-23T06:37:11;13.98;;;6.70;;
34926;SDS011;21132;48.308;14.274;2023-03-23T06:39:37;10.93;;;5.47;;
34926;SDS011;21132;48.308;14.274;2023-03-23T06:42:03;8.43;;;5.50;;
34926;SDS011;21132;48.308;14.274;2023-03-23T06:44:30;9.35;;;5.93;;
34926;SDS011;21132;48.308;14.274;2023-03-23T06:46:57;8.57;;;6.18;;
34926;SDS011;21132;48.308;14.274;2023-03-23T06:49:23;9.77;;;5.47;;
34926;SDS011;21132;48.308;14.274;2023-03-23T06:51:49;10.13;;;5.70;;
34926;SDS011;21132;48.308;14.274;2023-03-23T06:54:15;13.38;;;6.07;;
34926;SDS011;21132;48.308;14.274;2023-03-23T06:56:41;11.77;;;5.65;;
34926;SDS011;21132;48.308;14.274;2023-03-23T06:59:10;7.95;;;5.65;;
34926;SDS011;21132;48.308;14.274;2023-03-23T07:01:42;8.05;;;5.07;;
34926;SDS011;21132;48.308;14.274;2023-03-23T07:04:07;10.43;;;6.30;;
34926;SDS011;21132;48.308;14.274;2023-03-23T07:06:34;12.98;;;6.00;;
34926;SDS011;21132;48.308;14.274;2023-03-23T07:09:02;8.13;;;5.45;;
34926;SDS011;21132;48.308;14.274;2023-03-23T07:11:29;13.25;;;5.90;;
34926;SDS011;21132;48.308;14.274;2023-03-23T07:13:55;9.18;;;5.75;;
34926;SDS011;21132;48.308;14.274;2023-03-23T07:16:21;10.05;;;5.45;;
34926;SDS011;21132;48.308;14.274;2023-03-23T07:18:49;10.15;;;6.07;;
34926;SDS011;21132;48.308;14.274;2023-03-23T07:21:15;12.40;;;5.90;;
34926;SDS011;21132;48.308;14.274;2023-03-23T07:23:42;12.43;;;6.78;;
34926;SDS011;21132;48.308;14.274;2023-03-23T07:26:08;11.20;;;6.00;;
34926;SDS011;21132;48.308;14.274;2023-03-23T07:28:34;14.38;;;6.00;;
34926;SDS011;21132;48.308;14.274;2023-03-23T07:31:01;10.88;;;6.05;;
34926;SDS011;21132;48.308;14.274;2023-03-23T07:33:28;11.05;;;6.68;;
34926;SDS011;21132;48.308;14.274;2023-03-23T07:35:57;9.52;;;6.00;;
34926;SDS011;21132;48.308;14.274;2023-03-23T07:38:25;14.27;;;7.28;;
34926;SDS011;21132;48.308;14.274;2023-03-23T07:40:52;12.98;;;7.05;;
34926;SDS011;21132;48.308;14.274;2023-03-23T07:43:19;14.05;;;8.45;;
34926;SDS011;21132;48.308;14.274;2023-03-23T07:45:45;10.07;;;6.88;;
34926;SDS011;21132;48.308;14.274;2023-03-23T07:48:11;12.13;;;7.05;;
34926;SDS011;21132;48.308;14.274;2023-03-23T07:50:38;13.13;;;7.05;;
34926;SDS011;21132;48.308;14.274;2023-03-23T07:53:05;15.23;;;7.13;;
34926;SDS011;21132;48.308;14.274;2023-03-23T07:55:31;18.67;;;7.45;;
34926;SDS011;21132;48.308;14.274;2023-03-23T07:57:57;11.45;;;7.45;;
34926;SDS011;21132;48.308;14.274;2023-03-23T08:00:23;13.38;;;7.63;;
34926;SDS011;21132;48.308;14.274;2023-03-23T08:02:51;13.23;;;7.43;;
34926;SDS011;21132;48.308;14.274;2023-03-23T08:05:20;12.65;;;8.02;;
34926;SDS011;21132;48.308;14.274;2023-03-23T08:07:47;17.35;;;8.02;;
34926;SDS011;21132;48.308;14.274;2023-03-23T08:10:14;15.95;;;8.23;;
34926;SDS011;21132;48.308;14.274;2023-03-23T08:12:42;11.82;;;7.78;;
34926;SDS011;21132;48.308;14.274;2023-03-23T08:15:11;16.45;;;7.18;;
34926;SDS011;21132;48.308;14.274;2023-03-23T08:17:39;16.95;;;7.53;;
34926;SDS011;21132;48.308;14.274;2023-03-23T08:20:09;12.50;;;8.20;;
34926;SDS011;21132;48.308;14.274;2023-03-23T08:22:42;15.10;;;8.70;;
34926;SDS011;21132;48.308;14.274;2023-03-23T08:25:10;14.48;;;7.97;;
34926;SDS011;21132;48.308;14.274;2023-03-23T08:27:38;12.20;;;8.30;;
34926;SDS011;21132;48.308;14.274;2023-03-23T08:30:09;11.93;;;7.97;;
34926;SDS011;21132;48.308;14.274;2023-03-23T08:32:39;12.73;;;8.43;;
34926;SDS011;21132;48.308;14.274;2023-03-23T08:35:09;12.73;;;8.18;;
34926;SDS011;21132;48.308;14.274;2023-03-23T08:37:36;13.88;;;8.40;;
34926;SDS011;21132;48.308;14.274;2023-03-23T08:40:03;14.32;;;8.23;;
34926;SDS011;21132;48.308;14.274;2023-03-23T08:42:34;12.27;;;7.57;;
34926;SDS011;21132;48.308;14.274;2023-03-23T08:45:03;11.00;;;7.28;;
34926;SDS011;21132;48.308;14.274;2023-03-23T08:47:30;11.50;;;8.27;;
34926;SDS011;21132;48.308;14.274;2023-03-23T08:49:56;12.02;;;7.50;;
34926;SDS011;21132;48.308;14.274;2023-03-23T08:52:22;12.07;;;7.22;;
34926;SDS011;21132;48.308;14.274;2023-03-23T08:54:49;21.33;;;7.43;;
34926;SDS011;21132;48.308;14.274;2023-03-23T08:57:15;19.92;;;8.85;;
34926;SDS011;21132;48.308;14.274;2023-03-23T08:59:41;19.35;;;9.35;;
34926;SDS011;21132;48.308;14.274;2023-03-23T09:02:09;18.35;;;10.13;;
34926;SDS011;21132;48.308;14.274;2023-03-23T09:04:37;22.17;;;12.60;;
34926;SDS011;21132;48.308;14.274;2023-03-23T09:07:04;22.52;;;10.95;;
34926;SDS011;21132;48.308;14.274;2023-03-23T09:09:31;19.67;;;10.77;;
34926;SDS011;21132;48.308;14.274;2023-03-23T09:11:59;18.38;;;10.23;;
34926;SDS011;21132;48.308;14.274;2023-03-23T09:14:25;23.13;;;11.00;;
34926;SDS011;21132;48.308;14.274;2023-03-23T09:16:51;17.65;;;11.32;;
34926;SDS011;21132;48.308;14.274;2023-03-23T09:19:17;18.90;;;11.57;;
34926;SDS011;21132;48.308;14.274;2023-03-23T09:21:43;20.92;;;11.27;;
34926;SDS011;21132;48.308;14.274;2023-03-23T09:24:10;19.52;;;11.52;;
34926;SDS011;21132;48.308;14.274;2023-03-23T09:26:39;22.35;;;11.50;;
34926;SDS011;21132;48.308;14.274;2023-03-23T09:29:06;23.02;;;11.05;;
34926;SDS011;21132;48.308;14.274;2023-03-23T09:31:31;21.65;;;11.82;;
34926;SDS011;21132;48.308;14.274;2023-03-23T09:33:57;20.25;;;10.25;;
34926;SDS011;21132;48.308;14.274;2023-03-23T09:36:24;20.10;;;8.85;;
34926;SDS011;21132;48.308;14.274;2023-03-23T09:38:57;18.50;;;8.93;;
34926;SDS011;21132;48.308;14.274;2023-03-23T09:44:26;18.88;;;10.45;;
34926;SDS011;21132;48.308;14.274;2023-03-23T09:47:54;17.67;;;8.75;;
34926;SDS011;21132;48.308;14.274;2023-03-23T09:50:22;25.63;;;10.37;;
34926;SDS011;21132;48.308;14.274;2023-03-23T09:52:58;19.10;;;9.93;;
34926;SDS011;21132;48.308;14.274;2023-03-23T09:55:32;19.15;;;9.80;;
34926;SDS011;21132;48.308;14.274;2023-03-23T10:03:41;22.95;;;10.90;;
34926;SDS011;21132;48.308;14.274;2023-03-23T10:06:12;19.83;;;10.30;;
34926;SDS011;21132;48.308;14.274;2023-03-23T10:08:49;19.98;;;10.60;;
34926;SDS011;21132;48.308;14.274;2023-03-23T10:16:35;20.00;;;11.07;;
34926;SDS011;21132;48.308;14.274;2023-03-23T10:24:30;26.42;;;11.40;;
34926;SDS011;21132;48.308;14.274;2023-03-23T10:29:36;20.17;;;10.85;;
34926;SDS011;21132;48.308;14.274;2023-03-23T10:32:17;27.38;;;12.27;;
34926;SDS011;21132;48.308;14.274;2023-03-23T10:34:52;25.98;;;11.07;;
34926;SDS011;21132;48.308;14.274;2023-03-23T10:37:34;20.33;;;11.40;;
34926;SDS011;21132;48.308;14.274;2023-03-23T10:40:06;19.13;;;9.55;;
34926;SDS011;21132;48.308;14.274;2023-03-23T10:42:40;20.73;;;11.25;;
34926;SDS011;21132;48.308;14.274;2023-03-23T10:47:43;22.35;;;9.93;;
34926;SDS011;21132;48.308;14.274;2023-03-23T10:50:25;18.90;;;9.50;;
34926;SDS011;21132;48.308;14.274;2023-03-23T10:52:58;20.15;;;9.80;;
34926;SDS011;21132;48.308;14.274;2023-03-23T10:55:44;15.90;;;9.30;;
34926;SDS011;21132;48.308;14.274;2023-03-23T10:58:22;16.15;;;9.05;;
34926;SDS011;21132;48.308;14.274;2023-03-23T11:00:54;15.77;;;8.63;;
34926;SDS011;21132;48.308;14.274;2023-03-23T11:05:50;14.98;;;9.30;;
34926;SDS011;21132;48.308;14.274;2023-03-23T11:08:26;14.55;;;8.82;;
34926;SDS011;21132;48.308;14.274;2023-03-23T11:13:37;11.43;;;7.53;;
34926;SDS011;21132;48.308;14.274;2023-03-23T11:16:08;15.18;;;8.70;;
34926;SDS011;21132;48.308;14.274;2023-03-23T11:18:40;17.08;;;7.88;;
34926;SDS011;21132;48.308;14.274;2023-03-23T11:21:11;14.63;;;8.73;;
34926;SDS011;21132;48.308;14.274;2023-03-23T11:23:39;13.23;;;8.43;;
34926;SDS011;21132;48.308;14.274;2023-03-23T11:26:27;17.30;;;8.82;;
34926;SDS011;21132;48.308;14.274;2023-03-23T11:28:59;15.57;;;9.63;;
34926;SDS011;21132;48.308;14.274;2023-03-23T11:31:32;18.10;;;8.90;;
34926;SDS011;21132;48.308;14.274;2023-03-23T11:36:48;13.35;;;8.60;;
34926;SDS011;21132;48.308;14.274;2023-03-23T11:39:28;21.70;;;9.70;;
34926;SDS011;21132;48.308;14.274;2023-03-23T11:41:57;21.75;;;10.13;;
34926;SDS011;21132;48.308;14.274;2023-03-23T11:44:31;14.07;;;9.30;;
34926;SDS011;21132;48.308;14.274;2023-03-23T11:52:51;11.75;;;7.57;;
34926;SDS011;21132;48.308;14.274;2023-03-23T11:55:33;13.02;;;8.00;;
34926;SDS011;21132;48.308;14.274;2023-03-23T11:58:15;10.77;;;7.57;;
34926;SDS011;21132;48.308;14.274;2023-03-23T12:00:45;11.05;;;7.72;;
34926;SDS011;21132;48.308;14.274;2023-03-23T12:03:17;11.77;;;7.28;;
34926;SDS011;21132;48.308;14.274;2023-03-23T12:05:45;24.73;;;9.52;;
34926;SDS011;21132;48.308;14.274;2023-03-23T12:25:18;12.25;;;7.03;;
34926;SDS011;21132;48.308;14.274;2023-03-23T12:30:45;12.48;;;7.18;;
34926;SDS011;21132;48.308;14.274;2023-03-23T12:44:30;17.55;;;7.13;;
34926;SDS011;21132;48.308;14.274;2023-03-23T12:52:50;9.25;;;4.63;;
34926;SDS011;21132;48.308;14.274;2023-03-23T12:55:49;7.35;;;4.65;;
34926;SDS011;21132;48.308;14.274;2023-03-23T12:58:19;7.90;;;4.20;;
34926;SDS011;21132;48.308;14.274;2023-03-23T13:00:59;12.07;;;4.72;;
34926;SDS011;21132;48.308;14.274;2023-03-23T13:06:18;9.48;;;4.28;;
34926;SDS011;21132;48.308;14.274;2023-03-23T13:11:51;9.45;;;4.20;;
34926;SDS011;21132;48.308;14.274;2023-03-23T13:20:35;11.50;;;4.35;;
34926;SDS011;21132;48.308;14.274;2023-03-23T13:25:47;7.85;;;4.25;;
34926;SDS011;21132;48.308;14.274;2023-03-23T13:28:18;11.43;;;4.88;;
34926;SDS011;21132;48.308;14.274;2023-03-23T13:31:21;14.38;;;5.55;;
34926;SDS011;21132;48.308;14.274;2023-03-23T13:33:51;12.85;;;5.38;;
34926;SDS011;21132;48.308;14.274;2023-03-23T13:39:26;9.07;;;5.22;;
34926;SDS011;21132;48.308;14.274;2023-03-23T13:50:43;8.80;;;5.25;;
34926;SDS011;21132;48.308;14.274;2023-03-23T14:03:04;9.35;;;4.55;;
34926;SDS011;21132;48.308;14.274;2023-03-23T14:05:38;8.02;;;4.75;;
34926;SDS011;21132;48.308;14.274;2023-03-23T14:08:11;11.90;;;4.82;;
34926;SDS011;21132;48.308;14.274;2023-03-23T14:10:43;8.45;;;5.95;;
34926;SDS011;21132;48.308;14.274;2023-03-23T14:16:23;11.90;;;5.20;;
34926;SDS011;21132;48.308;14.274;2023-03-23T14:21:24;10.25;;;5.10;;
34926;SDS011;21132;48.308;14.274;2023-03-23T14:24:17;9.48;;;5.05;;
34926;SDS011;21132;48.308;14.274;2023-03-23T14:26:48;13.63;;;5.45;;
34926;SDS011;21132;48.308;14.274;2023-03-23T14:29:17;10.07;;;4.97;;
34926;SDS011;21132;48.308;14.274;2023-03-23T14:31:48;8.25;;;5.05;;
34926;SDS011;21132;48.308;14.274;2023-03-23T14:34:20;19.00;;;5.40;;
34926;SDS011;21132;48.308;14.274;2023-03-23T14:36:48;9.82;;;5.22;;
34926;SDS011;21132;48.308;14.274;2023-03-23T14:41:40;7.88;;;4.97;;
34926;SDS011;21132;48.308;14.274;2023-03-23T14:44:10;7.78;;;4.43;;
34926;SDS011;21132;48.308;14.274;2023-03-23T14:46:45;8.13;;;4.82;;
34926;SDS011;21132;48.308;14.274;2023-03-23T14:49:14;7.60;;;4.95;;
34926;SDS011;21132;48.308;14.274;2023-03-23T14:51:53;9.70;;;4.75;;
34926;SDS011;21132;48.308;14.274;2023-03-23T14:54:24;12.32;;;5.40;;
34926;SDS011;21132;48.308;14.274;2023-03-23T14:56:52;8.35;;;4.13;;
34926;SDS011;21132;48.308;14.274;2023-03-23T14:59:19;7.90;;;3.83;;
34926;SDS011;21132;48.308;14.274;2023-03-23T15:01:46;6.70;;;4.13;;
34926;SDS011;21132;48.308;14.274;2023-03-23T15:04:21;6.40;;;3.72;;
34926;SDS011;21132;48.308;14.274;2023-03-23T15:06:54;8.75;;;3.20;;
34926;SDS011;21132;48.308;14.274;2023-03-23T15:09:22;4.28;;;2.85;;
34926;SDS011;21132;48.308;14.274;2023-03-23T15:11:56;7.10;;;2.85;;
34926;SDS011;21132;48.308;14.274;2023-03-23T15:14:47;4.07;;;2.30;;
34926;SDS011;21132;48.308;14.274;2023-03-23T15:17:20;4.35;;;1.88;;
34926;SDS011;21132;48.308;14.274;2023-03-23T15:19:51;3.20;;;1.77;;
34926;SDS011;21132;48.308;14.274;2023-03-23T15:24:43;5.28;;;2.33;;
34926;SDS011;21132;48.308;14.274;2023-03-23T15:27:11;2.55;;;1.92;;
34926;SDS011;21132;48.308;14.274;2023-03-23T15:29:48;9.80;;;2.35;;
34926;SDS011;21132;48.308;14.274;2023-03-23T15:32:20;2.85;;;1.92;;
34926;SDS011;21132;48.308;14.274;2023-03-23T15:34:51;2.40;;;1.83;;
34926;SDS011;21132;48.308;14.274;2023-03-23T15:37:20;2.65;;;2.03;;
34926;SDS011;21132;48.308;14.274;2023-03-23T15:39:46;2.53;;;2.00;;
34926;SDS011;21132;48.308;14.274;2023-03-23T15:42:33;3.03;;;1.83;;
34926;SDS011;21132;48.308;14.274;2023-03-23T15:50:20;4.22;;;1.88;;
34926;SDS011;21132;48.308;14.274;2023-03-23T15:52:59;2.50;;;1.70;;
34926;SDS011;21132;48.308;14.274;2023-03-23T15:58:12;2.88;;;1.70;;
34926;SDS011;21132;48.308;14.274;2023-03-23T16:00:39;3.28;;;1.73;;
34926;SDS011;21132;48.308;14.274;2023-03-23T16:03:11;3.83;;;1.98;;
34926;SDS011;21132;48.308;14.274;2023-03-23T16:05:44;3.33;;;1.80;;
34926;SDS011;21132;48.308;14.274;2023-03-23T16:08:14;3.05;;;2.03;;
34926;SDS011;21132;48.308;14.274;2023-03-23T16:10:40;4.22;;;2.15;;
34926;SDS011;21132;48.308;14.274;2023-03-23T16:13:06;3.03;;;1.98;;
34926;SDS011;21132;48.308;14.274;2023-03-23T16:15:32;3.75;;;1.95;;
34926;SDS011;21132;48.308;14.274;2023-03-23T16:17:58;2.97;;;2.03;;
34926;SDS011;21132;48.308;14.274;2023-03-23T16:20:24;7.85;;;2.38;;
34926;SDS011;21132;48.308;14.274;2023-03-23T16:22:50;3.38;;;1.90;;
34926;SDS011;21132;48.308;14.274;2023-03-23T16:25:17;3.22;;;1.80;;
34926;SDS011;21132;48.308;14.274;2023-03-23T16:27:43;7.18;;;1.75;;
34926;SDS011;21132;48.308;14.274;2023-03-23T16:30:16;3.33;;;1.70;;
34926;SDS011;21132;48.308;14.274;2023-03-23T16:32:47;3.70;;;1.92;;
34926;SDS011;21132;48.308;14.274;2023-03-23T16:35:20;3.20;;;1.77;;
34926;SDS011;21132;48.308;14.274;2023-03-23T16:37:50;7.25;;;2.08;;
34926;SDS011;21132;48.308;14.274;2023-03-23T16:40:22;3.85;;;1.70;;
34926;SDS011;21132;48.308;14.274;2023-03-23T16:42:52;3.13;;;1.85;;
34926;SDS011;21132;48.308;14.274;2023-03-23T16:45:24;4.53;;;1.90;;
34926;SDS011;21132;48.308;14.274;2023-03-23T16:47:53;5.13;;;2.03;;
34926;SDS011;21132;48.308;14.274;2023-03-23T16:50:29;3.55;;;2.10;;
34926;SDS011;21132;48.308;14.274;2023-03-23T16:52:56;2.97;;;1.75;;
34926;SDS011;21132;48.308;14.274;2023-03-23T16:55:24;5.47;;;2.30;;
34926;SDS011;21132;48.308;14.274;2023-03-23T16:57:55;6.97;;;2.47;;
34926;SDS011;21132;48.308;14.274;2023-03-23T17:00:23;4.15;;;2.13;;
34926;SDS011;21132;48.308;14.274;2023-03-23T17:02:52;6.15;;;2.50;;
34926;SDS011;21132;48.308;14.274;2023-03-23T17:05:21;6.78;;;2.55;;
34926;SDS011;21132;48.308;14.274;2023-03-23T17:07:52;6.95;;;2.35;;
34926;SDS011;21132;48.308;14.274;2023-03-23T17:10:20;10.38;;;2.60;;
34926;SDS011;21132;48.308;14.274;2023-03-23T17:12:47;4.28;;;2.30;;
34926;SDS011;21132;48.308;14.274;2023-03-23T17:15:13;3.80;;;2.25;;
34926;SDS011;21132;48.308;14.274;2023-03-23T17:17:39;4.78;;;2.10;;
34926;SDS011;21132;48.308;14.274;2023-03-23T17:20:05;3.05;;;2.10;;
34926;SDS011;21132;48.308;14.274;2023-03-23T17:22:33;4.93;;;2.40;;
34926;SDS011;21132;48.308;14.274;2023-03-23T17:25:00;4.97;;;2.40;;
34926;SDS011;21132;48.308;14.274;2023-03-23T17:27:27;6.07;;;2.38;;
34926;SDS011;21132;48.308;14.274;2023-03-23T17:29:53;5.85;;;2.17;;
34926;SDS011;21132;48.308;14.274;2023-03-23T17:32:25;3.53;;;2.22;;
34926;SDS011;21132;48.308;14.274;2023-03-23T17:34:51;2.70;;;1.98;;
34926;SDS011;21132;48.308;14.274;2023-03-23T17:37:21;10.32;;;2.40;;
34926;SDS011;21132;48.308;14.274;2023-03-23T17:39:50;3.25;;;1.90;;
34926;SDS011;21132;48.308;14.274;2023-03-23T17:42:16;7.70;;;2.08;;
34926;SDS011;21132;48.308;14.274;2023-03-23T17:44:42;10.48;;;2.05;;
34926;SDS011;21132;48.308;14.274;2023-03-23T17:47:09;5.78;;;1.80;;
34926;SDS011;21132;48.308;14.274;2023-03-23T17:49:36;7.57;;;2.33;;
34926;SDS011;21132;48.308;14.274;2023-03-23T17:52:02;3.15;;;2.20;;
34926;SDS011;21132;48.308;14.274;2023-03-23T17:54:28;5.72;;;2.15;;
34926;SDS011;21132;48.308;14.274;2023-03-23T17:56:58;8.60;;;2.85;;
34926;SDS011;21132;48.308;14.274;2023-03-23T17:59:27;5.35;;;2.10;;
34926;SDS011;21132;48.308;14.274;2023-03-23T18:01:54;10.55;;;2.60;;
34926;SDS011;21132;48.308;14.274;2023-03-23T18:04:22;12.43;;;3.25;;
34926;SDS011;21132;48.308;14.274;2023-03-23T18:06:54;2.70;;;2.08;;
34926;SDS011;21132;48.308;14.274;2023-03-23T18:09:21;4.78;;;2.42;;
34926;SDS011;21132;48.308;14.274;2023-03-23T18:11:48;4.15;;;2.00;;
34926;SDS011;21132;48.308;14.274;2023-03-23T18:14:14;4.38;;;2.72;;
34926;SDS011;21132;48.308;14.274;2023-03-23T18:16:40;11.32;;;2.58;;
34926;SDS011;21132;48.308;14.274;2023-03-23T18:19:06;8.43;;;2.60;;
34926;SDS011;21132;48.308;14.274;2023-03-23T18:21:32;10.73;;;2.72;;
34926;SDS011;21132;48.308;14.274;2023-03-23T18:23:58;15.35;;;3.00;;
34926;SDS011;21132;48.308;14.274;2023-03-23T18:26:25;12.40;;;3.70;;
34926;SDS011;21132;48.308;14.274;2023-03-23T18:28:58;7.50;;;3.33;;
34926;SDS011;21132;48.308;14.274;2023-03-23T18:31:24;11.75;;;2.95;;
34926;SDS011;21132;48.308;14.274;2023-03-23T18:33:53;8.95;;;3.10;;
34926;SDS011;21132;48.308;14.274;2023-03-23T18:36:20;6.78;;;3.50;;
34926;SDS011;21132;48.308;14.274;2023-03-23T18:38:49;10.27;;;4.47;;
34926;SDS011;21132;48.308;14.274;2023-03-23T18:41:19;16.00;;;8.18;;
34926;SDS011;21132;48.308;14.274;2023-03-23T18:43:46;10.48;;;6.43;;
34926;SDS011;21132;48.308;14.274;2023-03-23T18:46:15;16.05;;;6.03;;
34926;SDS011;21132;48.308;14.274;2023-03-23T18:48:42;13.98;;;7.28;;
34926;SDS011;21132;48.308;14.274;2023-03-23T18:51:08;10.95;;;6.55;;
34926;SDS011;21132;48.308;14.274;2023-03-23T18:53:34;8.65;;;5.03;;
34926;SDS011;21132;48.308;14.274;2023-03-23T18:56:08;8.05;;;4.43;;
34926;SDS011;21132;48.308;14.274;2023-03-23T18:58:36;11.65;;;3.97;;
34926;SDS011;21132;48.308;14.274;2023-03-23T19:01:08;7.40;;;4.40;;
34926;SDS011;21132;48.308;14.274;2023-03-23T19:03:36;6.95;;;3.78;;
34926;SDS011;21132;48.308;14.274;2023-03-23T19:06:04;7.85;;;3.65;;
34926;SDS011;21132;48.308;14.274;2023-03-23T19:08:37;10.05;;;4.30;;
34926;SDS011;21132;48.308;14.274;2023-03-23T19:13:32;7.07;;;3.92;;
34926;SDS011;21132;48.308;14.274;2023-03-23T19:15:59;10.00;;;3.85;;
34926;SDS011;21132;48.308;14.274;2023-03-23T19:18:25;8.50;;;2.90;;
34926;SDS011;21132;48.308;14.274;2023-03-23T19:20:52;13.48;;;6.80;;
34926;SDS011;21132;48.308;14.274;2023-03-23T19:23:27;26.40;;;13.45;;
34926;SDS011;21132;48.308;14.274;2023-03-23T19:25:54;21.77;;;11.88;;
34926;SDS011;21132;48.308;14.274;2023-03-23T19:28:21;15.27;;;8.40;;
34926;SDS011;21132;48.308;14.274;2023-03-23T19:30:51;11.68;;;6.28;;
34926;SDS011;21132;48.308;14.274;2023-03-23T19:33:19;11.52;;;5.68;;
34926;SDS011;21132;48.308;14.274;2023-03-23T19:35:49;11.73;;;4.35;;